createdAt,value
2018-06-28T00:02:27.807Z,14.80
2018-06-28T00:04:56.824Z,14.70
2018-06-28T00:07:25.803Z,14.60
2018-06-28T00:09:54.792Z,14.50
2018-06-28T00:12:23.882Z,14.40
2018-06-28T00:14:52.870Z,14.40
2018-06-28T00:17:21.890Z,14.20
2018-06-28T00:19:50.872Z,14.40
2018-06-28T00:22:19.964Z,14.40
2018-06-28T00:24:48.954Z,14.30
2018-06-28T00:27:18.043Z,14.20
2018-06-28T00:29:47.018Z,14.20
2018-06-28T00:32:15.998Z,14.20
2018-06-28T00:34:44.995Z,14.20
2018-06-28T00:37:13.974Z,14.20
2018-06-28T00:39:42.961Z,14.20
2018-06-28T00:42:11.946Z,14.30
2018-06-28T00:44:40.942Z,14.40
2018-06-28T00:47:09.926Z,14.30
2018-06-28T00:49:39.030Z,14.40
2018-06-28T00:52:08.254Z,14.30
2018-06-28T00:54:37.233Z,14.30
2018-06-28T00:57:06.226Z,14.40
2018-06-28T00:59:35.202Z,14.40
2018-06-28T01:02:04.254Z,14.10
2018-06-28T01:04:33.249Z,14.20
2018-06-28T01:07:02.262Z,14.30
2018-06-28T01:09:31.255Z,14.20
2018-06-28T01:12:00.262Z,14.20
2018-06-28T01:14:29.280Z,14.40
2018-06-28T01:16:58.283Z,14.70
2018-06-28T01:19:27.391Z,14.40
2018-06-28T01:21:56.478Z,14.30
2018-06-28T01:24:25.482Z,14.20
2018-06-28T01:26:54.478Z,14.10
2018-06-28T01:29:23.484Z,14.30
2018-06-28T01:31:52.526Z,14.20
2018-06-28T01:34:21.627Z,14.30
2018-06-28T01:36:50.732Z,14.30
2018-06-28T01:39:19.710Z,14.20
2018-06-28T01:42:05.613Z,14.20
2018-06-28T01:44:34.593Z,14.10
2018-06-28T01:47:03.590Z,14.20
2018-06-28T01:49:32.570Z,14.20
2018-06-28T01:52:01.546Z,14.30
2018-06-28T01:54:30.550Z,14.60
2018-06-28T01:56:59.543Z,14.80
2018-06-28T01:59:28.545Z,14.50
2018-06-28T02:01:57.546Z,14.30
2018-06-28T02:04:26.530Z,14.30
2018-06-28T02:06:55.562Z,14.40
2018-06-28T02:09:24.562Z,14.50
2018-06-28T02:11:53.542Z,14.50
2018-06-28T02:14:22.521Z,14.50
2018-06-28T02:16:51.544Z,14.50
2018-06-28T02:19:20.525Z,14.40
2018-06-28T02:21:49.606Z,14.50
2018-06-28T02:24:18.686Z,14.50
2018-06-28T02:26:47.794Z,14.60
2018-06-28T02:29:16.874Z,14.50
2018-06-28T02:31:45.979Z,14.50
2018-06-28T02:34:14.964Z,14.60
2018-06-28T02:36:43.934Z,14.70
2018-06-28T02:39:13.022Z,14.70
2018-06-28T02:41:42.020Z,14.70
2018-06-28T02:44:11.006Z,14.70
2018-06-28T02:46:39.982Z,14.80
2018-06-28T02:49:08.988Z,14.80
2018-06-28T02:51:37.961Z,14.80
2018-06-28T02:54:07.057Z,14.80
2018-06-28T02:56:36.179Z,14.80
2018-06-28T02:59:05.187Z,14.80
2018-06-28T03:01:34.170Z,14.70
2018-06-28T03:04:03.156Z,14.70
2018-06-28T03:06:32.146Z,14.80
2018-06-28T03:09:01.166Z,14.70
2018-06-28T03:11:30.182Z,14.70
2018-06-28T03:13:59.164Z,14.70
2018-06-28T03:16:28.165Z,14.80
2018-06-28T03:18:57.219Z,14.70
2018-06-28T03:21:26.243Z,14.70
2018-06-28T03:23:55.263Z,14.80
2018-06-28T03:26:24.259Z,14.70
2018-06-28T03:28:53.262Z,14.80
2018-06-28T03:31:22.426Z,14.70
2018-06-28T03:33:51.420Z,14.70
2018-06-28T03:36:20.447Z,14.80
2018-06-28T03:38:49.461Z,14.80
2018-06-28T03:41:18.578Z,14.60
2018-06-28T03:43:47.623Z,14.60
2018-06-28T03:46:16.625Z,14.70
2018-06-28T03:48:45.639Z,14.70
2018-06-28T03:51:14.627Z,14.60
2018-06-28T03:53:43.625Z,14.60
2018-06-28T03:56:12.607Z,14.50
2018-06-28T03:58:41.702Z,14.40
2018-06-28T04:01:10.694Z,14.40
2018-06-28T04:03:39.706Z,14.30
2018-06-28T04:06:08.797Z,14.40
2018-06-28T04:08:37.881Z,14.40
2018-06-28T04:11:07.025Z,14.40
2018-06-28T04:13:36.146Z,14.40
2018-06-28T04:16:05.290Z,14.30
2018-06-28T04:18:34.285Z,14.50
2018-06-28T04:21:03.414Z,14.80
2018-06-28T04:23:32.442Z,14.80
2018-06-28T04:26:01.422Z,14.60
2018-06-28T04:28:30.409Z,14.50
2018-06-28T04:30:59.446Z,14.30
2018-06-28T04:33:28.569Z,14.30
2018-06-28T04:35:57.557Z,14.50
2018-06-28T04:38:26.538Z,14.50
2018-06-28T04:40:55.513Z,14.30
2018-06-28T04:43:24.498Z,14.30
2018-06-28T04:45:53.534Z,14.30
2018-06-28T04:48:22.534Z,14.30
2018-06-28T04:50:51.521Z,14.30
2018-06-28T04:53:20.699Z,14.30
2018-06-28T04:55:49.674Z,14.40
2018-06-28T04:58:18.774Z,14.30
2018-06-28T05:00:47.771Z,14.40
2018-06-28T05:03:16.897Z,14.60
2018-06-28T05:05:45.992Z,14.50
2018-06-28T05:08:14.986Z,14.40
2018-06-28T05:10:44.073Z,14.30
2018-06-28T05:13:13.170Z,14.30
2018-06-28T05:15:42.165Z,14.30
2018-06-28T05:18:11.139Z,14.40
2018-06-28T05:20:40.150Z,14.50
2018-06-28T05:23:09.146Z,14.50
2018-06-28T05:25:38.135Z,14.30
2018-06-28T05:28:07.230Z,14.30
2018-06-28T05:30:36.312Z,14.30
2018-06-28T05:33:05.326Z,14.30
2018-06-28T05:35:34.334Z,14.50
2018-06-28T05:38:03.323Z,14.50
2018-06-28T05:40:32.306Z,14.50
2018-06-28T05:43:01.294Z,14.40
2018-06-28T05:45:30.414Z,14.40
2018-06-28T05:47:59.394Z,14.40
2018-06-28T05:50:28.398Z,14.40
2018-06-28T05:52:57.485Z,14.60
2018-06-28T05:55:26.591Z,14.70
2018-06-28T05:57:55.679Z,14.80
2018-06-28T06:00:24.798Z,15.20
2018-06-28T06:02:53.786Z,15.10
2018-06-28T06:05:22.786Z,15.20
2018-06-28T06:07:51.777Z,15.00
2018-06-28T06:10:20.794Z,15.00
2018-06-28T06:12:49.731Z,14.80
2018-06-28T06:15:18.741Z,14.70
2018-06-28T06:17:47.750Z,14.80
2018-06-28T06:20:16.816Z,14.80
2018-06-28T06:22:45.741Z,14.80
2018-06-28T06:25:14.845Z,14.90
2018-06-28T06:27:43.818Z,15.30
2018-06-28T06:30:12.839Z,15.40
2018-06-28T06:32:41.833Z,15.40
2018-06-28T06:35:10.818Z,15.40
2018-06-28T06:37:39.802Z,15.20
2018-06-28T06:40:08.822Z,15.10
2018-06-28T06:42:37.912Z,15.10
2018-06-28T06:45:07.469Z,15.00
2018-06-28T06:47:36.454Z,14.90
2018-06-28T06:50:05.634Z,14.90
2018-06-28T06:52:34.739Z,14.80
2018-06-28T06:55:03.794Z,14.70
2018-06-28T06:57:32.939Z,14.70
2018-06-28T07:00:01.901Z,14.70
2018-06-28T07:02:30.890Z,14.50
2018-06-28T07:04:59.882Z,14.60
2018-06-28T07:07:28.738Z,14.70
2018-06-28T07:09:57.846Z,14.70
2018-06-28T07:12:26.952Z,14.70
2018-06-28T07:14:55.952Z,14.70
2018-06-28T07:17:24.939Z,14.90
2018-06-28T07:19:53.952Z,15.10
2018-06-28T07:22:22.931Z,15.00
2018-06-28T07:24:51.939Z,15.10
2018-06-28T07:27:20.965Z,15.10
2018-06-28T07:29:49.985Z,15.00
2018-06-28T07:32:19.007Z,15.10
2018-06-28T07:34:48.014Z,15.00
2018-06-28T07:37:17.110Z,14.80
2018-06-28T07:39:46.300Z,14.80
2018-06-28T07:42:15.118Z,14.80
2018-06-28T07:44:44.125Z,14.80
2018-06-28T07:47:13.116Z,14.70
2018-06-28T07:49:42.119Z,14.70
2018-06-28T07:52:11.090Z,14.50
2018-06-28T07:54:40.104Z,14.60
2018-06-28T07:57:09.237Z,14.50
2018-06-28T07:59:38.239Z,14.60
2018-06-28T08:02:07.251Z,14.70
2018-06-28T08:04:36.258Z,14.80
2018-06-28T08:07:05.269Z,14.90
2018-06-28T08:09:34.263Z,15.00
2018-06-28T08:12:03.418Z,14.90
2018-06-28T08:14:32.402Z,15.10
2018-06-28T08:17:01.393Z,15.10
2018-06-28T08:19:30.525Z,15.00
2018-06-28T08:21:59.610Z,15.00
2018-06-28T08:24:28.618Z,15.10
2018-06-28T08:26:57.655Z,15.20
2018-06-28T08:29:26.746Z,15.20
2018-06-28T08:31:55.752Z,15.20
2018-06-28T08:34:24.753Z,15.30
2018-06-28T08:36:53.743Z,15.30
2018-06-28T08:39:22.846Z,15.30
2018-06-28T08:41:51.842Z,15.30
2018-06-28T08:44:20.856Z,15.40
2018-06-28T08:46:49.916Z,15.30
2018-06-28T08:49:18.889Z,15.50
2018-06-28T08:51:47.891Z,15.50
2018-06-28T08:54:16.886Z,15.70
2018-06-28T08:56:45.894Z,15.70
2018-06-28T08:59:14.882Z,15.80
2018-06-28T09:01:43.887Z,16.00
2018-06-28T09:04:12.874Z,16.10
2018-06-28T09:06:41.879Z,16.00
2018-06-28T09:09:12.238Z,15.80
2018-06-28T09:11:41.944Z,15.80
2018-06-28T09:14:11.298Z,15.70
2018-06-28T09:16:40.297Z,15.70
2018-06-28T09:19:09.288Z,15.80
2018-06-28T09:21:38.319Z,15.80
2018-06-28T09:24:07.318Z,15.90
2018-06-28T09:26:36.310Z,15.80
2018-06-28T09:29:05.318Z,15.90
2018-06-28T09:31:34.486Z,16.00
2018-06-28T09:34:03.478Z,16.10
2018-06-28T09:36:33.122Z,16.00
2018-06-28T09:39:02.143Z,16.00
2018-06-28T09:41:31.134Z,16.00
2018-06-28T09:44:00.120Z,16.00
2018-06-28T09:46:29.135Z,16.10
2018-06-28T09:48:58.223Z,16.10
2018-06-28T09:51:27.209Z,16.20
2018-06-28T09:53:56.227Z,16.20
2018-06-28T09:56:25.232Z,16.10
2018-06-28T09:58:54.485Z,16.10
2018-06-28T10:01:23.483Z,16.30
2018-06-28T10:03:52.486Z,16.30
2018-06-28T10:06:21.510Z,16.20
2018-06-28T10:08:50.494Z,16.00
2018-06-28T10:11:19.511Z,16.00
2018-06-28T10:13:48.502Z,16.00
2018-06-28T10:16:17.606Z,15.90
2018-06-28T10:18:46.747Z,15.70
2018-06-28T10:21:15.852Z,15.70
2018-06-28T10:23:44.982Z,15.70
2018-06-28T10:26:14.007Z,15.80
2018-06-28T10:28:42.999Z,15.90
2018-06-28T10:31:12.002Z,15.80
2018-06-28T10:33:40.990Z,16.00
2018-06-28T10:36:09.998Z,16.00
2018-06-28T10:38:38.995Z,16.20
2018-06-28T10:41:07.762Z,16.30
2018-06-28T10:43:36.830Z,16.40
2018-06-28T10:46:05.907Z,16.70
2018-06-28T10:48:34.890Z,16.70
2018-06-28T10:51:03.993Z,16.60
2018-06-28T10:53:32.978Z,16.50
2018-06-28T10:56:01.999Z,16.50
2018-06-28T10:58:31.026Z,16.30
2018-06-28T11:01:00.073Z,16.20
2018-06-28T11:03:29.046Z,16.40
2018-06-28T11:05:58.134Z,16.40
2018-06-28T11:08:27.252Z,16.40
2018-06-28T11:10:56.230Z,16.40
2018-06-28T11:13:25.245Z,16.30
2018-06-28T11:15:54.231Z,16.30
2018-06-28T11:18:23.223Z,16.30
2018-06-28T11:20:52.205Z,16.40
2018-06-28T11:23:21.189Z,16.60
2018-06-28T11:25:50.330Z,16.60
2018-06-28T11:28:19.493Z,16.50
2018-06-28T11:30:48.630Z,16.60
2018-06-28T11:33:17.637Z,16.60
2018-06-28T11:35:46.725Z,16.50
2018-06-28T11:38:15.713Z,16.40
2018-06-28T11:40:44.706Z,16.30
2018-06-28T11:43:13.715Z,16.10
2018-06-28T11:45:42.824Z,16.00
2018-06-28T11:48:11.805Z,16.10
2018-06-28T11:50:40.817Z,16.00
2018-06-28T11:53:09.802Z,16.10
2018-06-28T11:55:38.802Z,16.00
2018-06-28T11:58:07.803Z,16.00
2018-06-28T12:00:36.786Z,16.10
2018-06-28T12:03:06.157Z,16.10
2018-06-28T12:05:35.214Z,16.20
2018-06-28T12:08:04.242Z,16.20
2018-06-28T12:10:33.343Z,16.20
2018-06-28T12:13:02.426Z,16.20
2018-06-28T12:15:31.415Z,16.20
2018-06-28T12:18:00.458Z,16.20
2018-06-28T12:20:29.762Z,16.10
2018-06-28T12:22:58.887Z,16.20
2018-06-28T12:25:27.889Z,16.20
2018-06-28T12:27:56.891Z,16.10
2018-06-28T12:30:25.885Z,16.20
2018-06-28T12:32:54.891Z,16.10
2018-06-28T12:35:23.883Z,16.00
2018-06-28T12:37:52.898Z,15.90
2018-06-28T12:40:21.900Z,15.90
2018-06-28T12:42:50.990Z,15.90
2018-06-28T12:45:19.986Z,15.80
2018-06-28T12:48:03.615Z,15.90
2018-06-28T12:50:32.656Z,15.80
2018-06-28T12:53:03.819Z,15.80
2018-06-28T12:56:39.642Z,15.70
2018-06-28T12:59:12.853Z,15.70
2018-06-28T13:01:41.950Z,15.70
2018-06-28T13:04:11.055Z,15.70
2018-06-28T13:06:40.148Z,15.70
2018-06-28T13:09:14.165Z,15.70
2018-06-28T13:11:43.199Z,15.70
2018-06-28T13:14:12.280Z,15.70
2018-06-28T13:16:41.271Z,15.70
2018-06-28T13:19:10.261Z,15.80
2018-06-28T13:21:39.255Z,15.70
2018-06-28T13:24:08.251Z,15.80
2018-06-28T13:26:37.271Z,15.70
2018-06-28T13:29:06.282Z,15.70
2018-06-28T13:31:35.377Z,15.70
2018-06-28T13:34:04.382Z,15.60
2018-06-28T13:36:33.393Z,15.60
2018-06-28T13:39:02.437Z,15.70
2018-06-28T13:41:31.668Z,15.70
2018-06-28T13:44:00.385Z,15.70
2018-06-28T13:46:29.594Z,15.80
2018-06-28T13:48:58.577Z,15.80
2018-06-28T13:51:27.566Z,15.80
2018-06-28T13:54:02.888Z,15.70
2018-06-28T13:56:31.974Z,15.90
2018-06-28T13:59:01.070Z,15.70
2018-06-28T14:01:30.073Z,15.80
2018-06-28T14:03:59.078Z,15.90
2018-06-28T14:06:28.077Z,15.80
2018-06-28T14:08:57.065Z,15.80
2018-06-28T14:11:26.085Z,15.80
2018-06-28T14:13:55.093Z,15.80
2018-06-28T14:16:24.118Z,15.80
2018-06-28T14:18:53.130Z,15.80
2018-06-28T14:21:22.127Z,15.80
2018-06-28T14:23:51.126Z,15.80
2018-06-28T14:26:20.110Z,15.80
2018-06-28T14:28:49.138Z,15.80
2018-06-28T14:31:18.209Z,15.70
2018-06-28T14:33:47.199Z,15.80
2018-06-28T14:36:16.286Z,15.80
2018-06-28T14:38:45.294Z,15.80
2018-06-28T14:41:14.300Z,15.90
2018-06-28T14:43:43.359Z,15.80
2018-06-28T14:46:12.382Z,15.70
2018-06-28T14:48:41.446Z,15.80
2018-06-28T14:51:10.446Z,15.80
2018-06-28T14:53:39.453Z,15.80
2018-06-28T14:56:08.464Z,15.80
2018-06-28T14:58:37.525Z,15.70
2018-06-28T15:01:06.637Z,15.80
2018-06-28T15:03:35.652Z,15.80
2018-06-28T15:06:04.663Z,15.70
2018-06-28T15:08:33.690Z,15.60
2018-06-28T15:11:02.710Z,15.70
2018-06-28T15:13:31.718Z,15.70
2018-06-28T15:16:00.740Z,15.70
2018-06-28T15:18:29.765Z,15.60
2018-06-28T15:20:58.829Z,15.70
2018-06-28T15:23:27.872Z,15.80
2018-06-28T15:25:56.895Z,15.70
2018-06-28T15:28:26.684Z,15.60
2018-06-28T15:30:55.750Z,15.70
2018-06-28T15:33:24.842Z,15.60
2018-06-28T15:35:53.796Z,15.80
2018-06-28T15:38:22.834Z,15.70
2018-06-28T15:40:51.930Z,15.70
2018-06-28T15:43:20.955Z,15.80
2018-06-28T15:45:50.130Z,15.80
2018-06-28T15:48:19.046Z,15.70
2018-06-28T15:50:48.054Z,15.80
2018-06-28T15:53:17.144Z,15.70
2018-06-28T15:55:46.135Z,15.70
2018-06-28T15:58:15.150Z,15.60
2018-06-28T16:00:44.162Z,15.70
2018-06-28T16:03:13.176Z,15.60
2018-06-28T16:05:42.246Z,15.60
2018-06-28T16:08:11.369Z,15.50
2018-06-28T16:10:40.434Z,15.40
2018-06-28T16:13:09.504Z,15.50
2018-06-28T16:15:38.538Z,15.50
2018-06-28T16:18:07.629Z,15.30
2018-06-28T16:20:36.622Z,15.30
2018-06-28T16:23:05.623Z,15.20
2018-06-28T16:25:34.650Z,15.20
2018-06-28T16:28:03.668Z,15.20
2018-06-28T16:30:32.433Z,15.30
2018-06-28T16:33:01.441Z,15.30
2018-06-28T16:35:30.430Z,15.30
2018-06-28T16:37:59.456Z,15.30
2018-06-28T16:40:28.437Z,15.30
2018-06-28T16:42:57.458Z,15.40
2018-06-28T16:45:26.454Z,15.30
2018-06-28T16:47:55.444Z,15.30
2018-06-28T16:50:24.464Z,15.20
2018-06-28T16:52:53.565Z,15.30
2018-06-28T16:55:22.561Z,15.30
2018-06-28T16:57:53.086Z,15.30
2018-06-28T17:00:22.057Z,15.20
2018-06-28T17:02:51.082Z,15.10
2018-06-28T17:05:20.098Z,15.30
2018-06-28T17:07:49.201Z,15.30
2018-06-28T17:10:18.105Z,15.30
2018-06-28T17:12:47.097Z,15.20
2018-06-28T17:15:16.098Z,15.10
2018-06-28T17:17:45.173Z,15.00
2018-06-28T17:20:14.250Z,15.20
2018-06-28T17:22:43.313Z,15.40
2018-06-28T17:25:12.499Z,15.40
2018-06-28T17:27:41.517Z,15.50
2018-06-28T17:30:10.562Z,15.40
2018-06-28T17:32:39.555Z,15.30
2018-06-28T17:35:08.586Z,15.40
2018-06-28T17:37:37.596Z,15.50
2018-06-28T17:40:07.078Z,15.50
2018-06-28T17:42:36.173Z,15.60
2018-06-28T17:45:05.234Z,15.50
2018-06-28T17:47:34.278Z,15.40
2018-06-28T17:50:03.270Z,15.40
2018-06-28T17:52:32.357Z,15.50
2018-06-28T17:55:01.459Z,15.50
2018-06-28T17:57:30.582Z,15.40
2018-06-28T18:00:00.597Z,15.30
2018-06-28T18:02:29.622Z,15.40
2018-06-28T18:04:58.672Z,15.50
2018-06-28T18:07:27.607Z,15.50
2018-06-28T18:09:56.838Z,15.40
2018-06-28T18:12:25.866Z,15.40
2018-06-28T18:14:54.890Z,15.40
2018-06-28T18:17:23.886Z,15.40
2018-06-28T18:19:52.859Z,15.50
2018-06-28T18:22:21.872Z,15.50
2018-06-28T18:24:51.007Z,15.50
2018-06-28T18:27:20.018Z,15.50
2018-06-28T18:29:49.094Z,15.60
2018-06-28T18:32:18.103Z,15.60
2018-06-28T18:34:47.096Z,15.50
2018-06-28T18:37:16.085Z,15.50
2018-06-28T18:39:45.074Z,15.40
2018-06-28T18:42:14.182Z,15.40
2018-06-28T18:44:43.483Z,15.50
2018-06-28T18:47:12.486Z,15.60
2018-06-28T18:49:41.502Z,15.50
2018-06-28T18:52:10.640Z,15.40
2018-06-28T18:54:39.737Z,15.40
2018-06-28T18:57:08.730Z,15.40
2018-06-28T18:59:37.741Z,15.50
2018-06-28T19:02:07.664Z,15.40
2018-06-28T19:04:36.646Z,15.40
2018-06-28T19:07:06.069Z,15.50
2018-06-28T19:09:40.278Z,15.50
2018-06-28T19:12:09.327Z,15.60
2018-06-28T19:14:43.556Z,15.50
2018-06-28T19:17:12.652Z,15.50
2018-06-28T19:19:41.734Z,15.60
2018-06-28T19:22:16.030Z,15.50
2018-06-28T19:24:45.147Z,15.50
2018-06-28T19:27:14.202Z,15.50
2018-06-28T19:29:48.511Z,15.50
2018-06-28T19:32:22.765Z,15.50
2018-06-28T19:34:51.847Z,15.50
2018-06-28T19:37:26.122Z,15.50
2018-06-28T19:40:00.465Z,15.50
2018-06-28T19:42:34.806Z,15.50
2018-06-28T19:45:03.818Z,15.50
2018-06-28T19:47:32.822Z,15.50
2018-06-28T19:50:07.274Z,15.50
2018-06-28T19:52:41.490Z,15.40
2018-06-28T19:55:10.505Z,15.40
2018-06-28T19:57:39.518Z,15.40
2018-06-28T20:00:08.680Z,15.50
2018-06-28T20:02:43.029Z,15.60
2018-06-28T20:05:12.014Z,15.50
2018-06-28T20:07:41.004Z,15.60
2018-06-28T20:10:10.087Z,15.50
2018-06-28T20:12:44.266Z,15.60
2018-06-28T20:17:24.944Z,15.60
2018-06-28T20:19:59.265Z,15.60
2018-06-28T20:22:28.365Z,15.60
2018-06-28T20:24:57.457Z,15.50
2018-06-28T20:27:31.886Z,15.50
2018-06-28T20:30:06.104Z,15.70
2018-06-28T20:32:40.349Z,15.60
2018-06-28T20:35:09.362Z,15.70
2018-06-28T20:37:38.392Z,15.60
2018-06-28T20:40:07.762Z,15.70
2018-06-28T20:42:43.966Z,15.50
2018-06-28T20:45:12.834Z,15.70
2018-06-28T20:47:41.776Z,15.70
2018-06-28T20:50:10.758Z,15.70
2018-06-28T20:52:39.757Z,15.50
2018-06-28T20:55:08.747Z,15.60
2018-06-28T20:57:37.766Z,15.60
2018-06-28T21:00:08.537Z,15.70
2018-06-28T21:02:37.807Z,15.60
2018-06-28T21:05:06.830Z,15.60
2018-06-28T21:07:35.848Z,15.60
2018-06-28T21:10:04.847Z,15.70
2018-06-28T21:12:35.254Z,15.80
2018-06-28T21:15:04.387Z,15.70
2018-06-28T21:17:34.602Z,15.60
2018-06-28T21:20:03.646Z,15.60
2018-06-28T21:22:32.756Z,15.70
2018-06-28T21:25:01.870Z,15.70
2018-06-28T21:27:30.878Z,15.60
2018-06-28T21:29:59.885Z,15.60
2018-06-28T21:32:28.973Z,15.70
2018-06-28T21:34:58.087Z,15.60
2018-06-28T21:37:27.106Z,15.60
2018-06-28T21:39:56.326Z,15.70
2018-06-28T21:42:25.335Z,15.90
2018-06-28T21:44:54.350Z,15.90
2018-06-28T21:47:23.509Z,15.70
2018-06-28T21:49:56.948Z,15.70
2018-06-28T21:52:25.918Z,15.80
2018-06-28T21:54:54.930Z,15.60
2018-06-28T21:57:23.931Z,15.60
2018-06-28T21:59:52.918Z,15.60
2018-06-28T22:02:21.942Z,15.60
2018-06-28T22:04:51.102Z,15.60
2018-06-28T22:07:20.196Z,15.60
2018-06-28T22:09:49.195Z,15.60
2018-06-28T22:12:18.179Z,15.80
2018-06-28T22:14:47.182Z,15.70
2018-06-28T22:17:16.198Z,15.80
2018-06-28T22:19:45.199Z,15.70
2018-06-28T22:22:14.185Z,15.60
2018-06-28T22:24:43.182Z,15.80
2018-06-28T22:27:12.192Z,15.90
2018-06-28T22:29:41.183Z,15.80
2018-06-28T22:32:10.218Z,15.70
2018-06-28T22:34:39.246Z,15.70
2018-06-28T22:37:08.230Z,15.80
2018-06-28T22:39:37.239Z,15.70
2018-06-28T22:42:06.294Z,15.60
2018-06-28T22:44:35.261Z,15.60
2018-06-28T22:47:04.256Z,15.50
2018-06-28T22:49:33.257Z,15.50
2018-06-28T22:52:02.282Z,15.60
2018-06-28T22:54:31.273Z,15.60
2018-06-28T22:57:00.153Z,15.60
2018-06-28T22:59:29.222Z,15.60
2018-06-28T23:01:58.214Z,15.60
2018-06-28T23:04:27.206Z,15.50
2018-06-28T23:06:56.231Z,15.70
2018-06-28T23:09:25.280Z,15.70
2018-06-28T23:11:54.222Z,15.70
2018-06-28T23:14:23.232Z,15.60
2018-06-28T23:16:52.223Z,15.70
2018-06-28T23:19:21.319Z,15.60
2018-06-28T23:21:50.330Z,15.70
2018-06-28T23:24:19.326Z,15.70
2018-06-28T23:26:48.339Z,15.80
2018-06-28T23:29:17.422Z,15.70
2018-06-28T23:31:46.446Z,15.70
2018-06-28T23:34:15.562Z,15.60
2018-06-28T23:36:44.570Z,15.60
2018-06-28T23:39:13.553Z,15.60
2018-06-28T23:41:42.574Z,15.60
2018-06-28T23:44:11.562Z,15.60
2018-06-28T23:46:40.578Z,15.60
2018-06-28T23:49:09.581Z,15.60
2018-06-28T23:51:38.615Z,15.70
2018-06-28T23:54:07.766Z,15.80
2018-06-28T23:56:36.758Z,15.70
2018-06-28T23:59:05.778Z,15.80
